This is the latest recevied weather packets stored in our database for station/object OE5HCE. If no packets are shown the sender has not sent any weather packets the latest 10 day(s).
| Time | Temp. | Humidity | Pressure | Rain* | Wind** | Luminosity | Snow |
|---|---|---|---|---|---|---|---|
| 1788091211 | 27.78° C | 48% | 1016.7 hPa | 0 mm | - | 686 W/m² | - |
| 1788090316 | 27.78° C | 50% | 1016.8 hPa | 0 mm | - | 686 W/m² | - |
| 1788089408 | 27.22° C | 51% | 1017 hPa | 0 mm | - | 682 W/m² | - |
| 1788088505 | 26.67° C | 51% | 1017.1 hPa | 0 mm | - | 413 W/m² | - |
| 1788087603 | 26.11° C | 56% | 1017.3 hPa | 0 mm | - | 675 W/m² | - |
| 1788086765 | 26.11° C | 53% | 1017.4 hPa | 0 mm | - | 693 W/m² | - |
| 1788085857 | 25.56° C | 55% | 1017.6 hPa | 0 mm | - | 677 W/m² | - |
| 1788084953 | 25° C | 60% | 1017.9 hPa | 0 mm | - | 664 W/m² | - |
| 1788084049 | 24.44° C | 60% | 1018 hPa | 0 mm | - | 645 W/m² | - |
| 1788083146 | 23.89° C | 62% | 1018.2 hPa | 0 mm | - | 629 W/m² | - |
| 1788082243 | 23.33° C | 65% | 1018.2 hPa | 0 mm | - | 612 W/m² | - |
| 1788081340 | 23.33° C | 65% | 1018.4 hPa | 0 mm | - | 594 W/m² | - |
| 1788080456 | 23.89° C | 64% | 1018.4 hPa | 0 mm | - | 589 W/m² | - |
| 1788079534 | 23.89° C | 56% | 1018.2 hPa | 0 mm | - | 554 W/m² | - |
| 1788078631 | 23.33° C | 59% | 1018.2 hPa | 0 mm | - | 243 W/m² | - |
| 1788077733 | 22.78° C | 63% | 1018.4 hPa | 0 mm | - | 33 W/m² | - |
| 1788076821 | 21.11° C | 68% | 1018.3 hPa | 0 mm | - | 32 W/m² | - |
| 1788075917 | 20.56° C | 73% | 1018.3 hPa | 0 mm | - | 35 W/m² | - |
| 1788075020 | 19.44° C | 75% | 1018.3 hPa | 0 mm | - | 47 W/m² | - |
| 1788074109 | 18.33° C | 75% | 1018.3 hPa | 0 mm | - | 53 W/m² | - |
| 1788073203 | 17.78° C | 74% | 1018.2 hPa | 0 mm | - | 179 W/m² | - |
| 1788072365 | 17.22° C | 72% | 1018.1 hPa | 0 mm | - | 339 W/m² | - |
| 1788071456 | 16.67° C | 70% | 1018.1 hPa | 0 mm | - | 223 W/m² | - |
| 1788070555 | 16.11° C | 68% | 1018 hPa | 0 mm | - | 250 W/m² | - |
| 1788069654 | 15.56° C | 65% | 1018 hPa | 0 mm | - | 144 W/m² | - |
* Rain latest hour (hover to see other rain measurements)
** Current wind speed in m/s (hover to see current wind gust speed)